createdAt,value
2022-09-10T00:01:54.005Z,75.30
2022-09-10T00:03:57.423Z,75.50
2022-09-10T00:06:04.571Z,75.54
2022-09-10T00:08:08.134Z,75.37
2022-09-10T00:10:12.870Z,75.57
2022-09-10T00:12:17.017Z,75.29
2022-09-10T00:14:23.248Z,74.97
2022-09-10T00:16:27.652Z,74.90
2022-09-10T00:18:34.568Z,74.83
2022-09-10T00:20:43.575Z,74.72
2022-09-10T00:22:48.493Z,74.64
2022-09-10T00:24:56.393Z,74.42
2022-09-10T00:26:59.981Z,74.50
2022-09-10T00:29:03.243Z,74.57
2022-09-10T00:31:06.607Z,74.91
2022-09-10T00:33:10.725Z,74.98
2022-09-10T00:35:15.702Z,75.22
2022-09-10T00:37:19.141Z,75.08
2022-09-10T00:39:22.512Z,74.80
2022-09-10T00:41:27.677Z,74.91
2022-09-10T00:43:48.062Z,74.73
2022-09-10T00:45:55.599Z,75.17
2022-09-10T00:48:03.552Z,75.03
2022-09-10T00:50:16.983Z,74.99
2022-09-10T00:52:22.007Z,74.62
2022-09-10T00:54:28.144Z,75.18
2022-09-10T00:56:32.408Z,74.85
2022-09-10T00:58:35.823Z,74.93
2022-09-10T01:00:42.501Z,75.28
2022-09-10T01:02:46.663Z,75.39
2022-09-10T01:04:50.491Z,75.24
2022-09-10T01:06:55.739Z,75.09
2022-09-10T01:09:01.659Z,75.16
2022-09-10T01:11:28.365Z,75.52
2022-09-10T01:13:43.688Z,76.02
2022-09-10T01:15:56.169Z,76.31
2022-09-10T01:18:18.579Z,76.41
2022-09-10T01:20:57.656Z,76.80
2022-09-10T01:23:37.560Z,77.07
2022-09-10T01:25:52.490Z,77.43
2022-09-10T01:28:02.371Z,77.65
2022-09-10T01:30:09.996Z,77.98
2022-09-10T01:32:18.431Z,78.25
2022-09-10T01:34:30.533Z,79.57
2022-09-10T01:36:39.525Z,79.77
2022-09-10T01:38:43.720Z,80.70
2022-09-10T01:40:49.503Z,81.23
2022-09-10T01:43:02.471Z,81.00
2022-09-10T01:45:07.674Z,80.71
2022-09-10T01:47:18.615Z,81.64
2022-09-10T01:49:32.165Z,81.34
2022-09-10T01:51:51.823Z,81.44
2022-09-10T01:54:15.634Z,81.49
2022-09-10T01:56:35.608Z,81.30
2022-09-10T01:58:43.941Z,81.34
2022-09-10T02:00:56.911Z,81.04
2022-09-10T02:03:05.401Z,80.73
2022-09-10T02:05:10.968Z,81.34
2022-09-10T02:07:16.924Z,80.77
2022-09-10T02:09:20.783Z,80.84
2022-09-10T02:11:24.265Z,81.58
2022-09-10T02:13:30.747Z,80.80
2022-09-10T02:15:53.002Z,81.14
2022-09-10T02:17:59.303Z,80.60
2022-09-10T02:20:05.130Z,80.14
2022-09-10T02:22:08.530Z,80.50
2022-09-10T02:24:13.292Z,80.66
2022-09-10T02:26:18.395Z,80.33
2022-09-10T02:28:21.791Z,80.07
2022-09-10T02:30:25.673Z,80.24
2022-09-10T02:32:30.526Z,80.12
2022-09-10T02:34:34.113Z,80.23
2022-09-10T02:36:38.275Z,80.04
2022-09-10T02:38:41.576Z,80.79
2022-09-10T02:40:46.162Z,80.35
2022-09-10T02:42:49.636Z,80.30
2022-09-10T02:44:58.632Z,80.72
2022-09-10T02:47:02.076Z,80.40
2022-09-10T02:49:07.354Z,80.60
2022-09-10T02:51:14.469Z,80.43
2022-09-10T02:53:18.215Z,80.45
2022-09-10T02:55:21.630Z,80.53
2022-09-10T02:57:25.303Z,80.46
2022-09-10T02:59:28.984Z,80.64
2022-09-10T03:01:34.930Z,80.56
2022-09-10T03:03:41.735Z,80.74
2022-09-10T03:05:47.356Z,80.79
2022-09-10T03:07:50.706Z,80.92
2022-09-10T03:09:54.586Z,80.43
2022-09-10T03:11:57.871Z,80.33
2022-09-10T03:14:01.179Z,80.48
2022-09-10T03:16:09.440Z,79.81
2022-09-10T03:18:12.881Z,79.77
2022-09-10T03:20:16.450Z,79.86
2022-09-10T03:22:21.204Z,79.65
2022-09-10T03:24:25.263Z,79.80
2022-09-10T03:26:28.718Z,79.86
2022-09-10T03:28:32.910Z,79.89
2022-09-10T03:30:40.559Z,79.80
2022-09-10T03:32:44.932Z,79.26
2022-09-10T03:34:50.363Z,79.58
2022-09-10T03:36:54.442Z,79.61
2022-09-10T03:39:00.295Z,79.52
2022-09-10T03:41:07.215Z,79.29
2022-09-10T03:43:10.565Z,79.81
2022-09-10T03:45:14.066Z,79.48
2022-09-10T03:47:18.324Z,79.19
2022-09-10T03:49:22.835Z,79.08
2022-09-10T03:51:27.505Z,79.17
2022-09-10T03:53:31.974Z,79.22
2022-09-10T03:55:38.441Z,79.11
2022-09-10T03:57:42.205Z,79.71
2022-09-10T03:59:46.059Z,79.79
2022-09-10T04:01:50.716Z,79.53
2022-09-10T04:03:56.458Z,79.64
2022-09-10T04:06:02.065Z,79.60
2022-09-10T04:08:07.433Z,79.78
2022-09-10T04:10:13.233Z,79.91
2022-09-10T04:12:18.835Z,79.87
2022-09-10T04:14:24.635Z,79.93
2022-09-10T04:16:32.429Z,80.25
2022-09-10T04:18:39.443Z,80.54
2022-09-10T04:20:48.749Z,79.84
2022-09-10T04:22:53.493Z,79.81
2022-09-10T04:24:57.093Z,79.73
2022-09-10T04:27:01.432Z,79.90
2022-09-10T04:29:06.245Z,79.78
2022-09-10T04:31:10.337Z,79.76
2022-09-10T04:33:14.059Z,80.12
2022-09-10T04:35:20.282Z,79.76
2022-09-10T04:37:24.534Z,80.25
2022-09-10T04:39:30.951Z,80.40
2022-09-10T04:41:35.458Z,80.88
2022-09-10T04:43:38.890Z,81.51
2022-09-10T04:45:44.705Z,81.83
2022-09-10T04:47:49.478Z,81.98
2022-09-10T04:49:53.067Z,81.63
2022-09-10T04:51:57.410Z,81.97
2022-09-10T04:54:02.003Z,81.61
2022-09-10T04:56:12.491Z,81.91
2022-09-10T04:58:16.119Z,81.70
2022-09-10T05:00:21.488Z,82.13
2022-09-10T05:02:27.042Z,81.87
2022-09-10T05:04:30.692Z,82.42
2022-09-10T05:06:35.857Z,82.78
2022-09-10T05:08:41.165Z,82.09
2022-09-10T05:10:45.735Z,82.50
2022-09-10T05:12:49.303Z,82.37
2022-09-10T05:14:53.050Z,82.54
2022-09-10T05:16:57.276Z,83.26
2022-09-10T05:19:02.148Z,83.07
2022-09-10T05:21:09.223Z,82.99
2022-09-10T05:23:13.051Z,82.69
2022-09-10T05:25:17.751Z,82.61
2022-09-10T05:27:21.143Z,82.25
2022-09-10T05:29:24.666Z,82.28
2022-09-10T05:31:28.629Z,82.06
2022-09-10T05:33:32.701Z,81.68
2022-09-10T05:35:37.880Z,81.87
2022-09-10T05:37:42.314Z,82.02
2022-09-10T05:39:47.261Z,81.86
2022-09-10T05:41:52.236Z,81.92
2022-09-10T05:43:55.735Z,81.95
2022-09-10T05:45:59.464Z,81.61
2022-09-10T05:48:03.287Z,81.54
2022-09-10T05:50:07.863Z,81.52
2022-09-10T05:52:16.035Z,81.51
2022-09-10T05:54:19.575Z,81.38
2022-09-10T05:56:23.157Z,81.40
2022-09-10T05:58:27.673Z,81.52
2022-09-10T06:00:31.410Z,81.19
2022-09-10T06:02:38.151Z,81.92
2022-09-10T06:04:41.606Z,81.37
2022-09-10T06:06:46.271Z,81.52
2022-09-10T06:08:53.894Z,80.92
2022-09-10T06:11:12.081Z,80.96
2022-09-10T06:13:22.069Z,80.87
2022-09-10T06:15:26.901Z,81.33
2022-09-10T06:17:30.795Z,80.83
2022-09-10T06:19:34.506Z,80.54
2022-09-10T06:21:38.090Z,81.06
2022-09-10T06:23:41.624Z,80.60
2022-09-10T06:25:48.369Z,80.49
2022-09-10T06:27:52.046Z,80.57
2022-09-10T06:29:57.376Z,80.93
2022-09-10T06:32:01.037Z,80.38
2022-09-10T06:34:04.377Z,80.70
2022-09-10T06:36:11.076Z,80.98
2022-09-10T06:38:14.373Z,80.71
2022-09-10T06:40:18.646Z,80.79
2022-09-10T06:42:24.127Z,81.11
2022-09-10T06:44:43.956Z,81.94
2022-09-10T06:49:23.569Z,82.02
2022-09-10T06:51:27.033Z,82.23
2022-09-10T06:53:33.599Z,82.39
2022-09-10T06:55:38.148Z,82.60
2022-09-10T06:57:43.366Z,82.29
2022-09-10T06:59:49.066Z,82.61
2022-09-10T07:01:53.065Z,82.48
2022-09-10T07:03:59.948Z,82.46
2022-09-10T07:06:05.790Z,82.22
2022-09-10T07:08:12.350Z,82.56
2022-09-10T07:10:16.379Z,82.75
2022-09-10T07:12:21.310Z,82.82
2022-09-10T07:14:26.978Z,82.98
2022-09-10T07:16:31.903Z,83.31
2022-09-10T07:18:36.031Z,83.52
2022-09-10T07:20:39.935Z,83.69
2022-09-10T07:22:43.677Z,83.17
2022-09-10T07:24:50.348Z,84.02
2022-09-10T07:27:05.095Z,83.99
2022-09-10T07:29:10.585Z,84.44
2022-09-10T07:31:18.170Z,84.22
2022-09-10T07:33:23.354Z,84.11
2022-09-10T07:35:26.767Z,83.99
2022-09-10T07:37:30.652Z,84.16
2022-09-10T07:39:34.086Z,84.03
2022-09-10T07:41:37.674Z,84.78
2022-09-10T07:43:45.135Z,84.29
2022-09-10T07:45:49.991Z,84.21
2022-09-10T07:47:55.781Z,84.35
2022-09-10T07:49:59.761Z,84.80
2022-09-10T07:52:04.277Z,84.76
2022-09-10T07:54:15.648Z,84.86
2022-09-10T07:56:24.122Z,85.83
2022-09-10T07:58:28.388Z,85.49
2022-09-10T08:00:31.905Z,85.81
2022-09-10T08:02:41.384Z,85.62
2022-09-10T08:04:46.940Z,85.66
2022-09-10T08:06:51.460Z,85.97
2022-09-10T08:08:55.060Z,86.00
2022-09-10T08:11:09.841Z,86.27
2022-09-10T08:13:16.400Z,86.45
2022-09-10T08:15:19.941Z,86.62
2022-09-10T08:17:24.068Z,86.20
2022-09-10T08:19:29.586Z,86.04
2022-09-10T08:21:34.339Z,85.87
2022-09-10T08:23:39.518Z,85.53
2022-09-10T08:25:51.485Z,85.62
2022-09-10T08:27:55.115Z,85.48
2022-09-10T08:29:58.651Z,85.56
2022-09-10T08:32:02.021Z,85.26
2022-09-10T08:34:09.268Z,85.69
2022-09-10T08:36:14.844Z,85.26
2022-09-10T08:38:20.126Z,85.00
2022-09-10T08:40:23.987Z,84.73
2022-09-10T08:42:34.285Z,84.51
2022-09-10T08:44:49.012Z,84.54
2022-09-10T08:47:01.126Z,84.96
2022-09-10T08:49:10.166Z,84.96
2022-09-10T08:51:18.733Z,84.47
2022-09-10T08:53:29.379Z,84.33
2022-09-10T08:55:37.947Z,83.88
2022-09-10T08:57:48.397Z,83.89
2022-09-10T08:59:55.445Z,83.65
2022-09-10T09:02:01.863Z,83.24
2022-09-10T09:04:16.878Z,83.62
2022-09-10T09:06:30.239Z,83.32
2022-09-10T09:08:39.883Z,83.16
2022-09-10T09:10:50.077Z,84.07
2022-09-10T09:13:14.877Z,83.92
2022-09-10T09:15:26.163Z,82.96
2022-09-10T09:17:42.390Z,82.94
2022-09-10T09:19:58.602Z,83.77
2022-09-10T09:22:08.325Z,82.66
2022-09-10T09:24:24.020Z,82.92
2022-09-10T09:26:35.931Z,83.02
2022-09-10T09:28:46.783Z,82.77
2022-09-10T09:30:55.606Z,83.18
2022-09-10T09:33:04.521Z,84.22
2022-09-10T09:35:22.504Z,83.49
2022-09-10T09:37:30.398Z,84.21
2022-09-10T09:39:44.435Z,84.08
2022-09-10T09:41:55.510Z,84.06
2022-09-10T09:44:06.660Z,84.79
2022-09-10T09:46:15.853Z,84.93
2022-09-10T09:48:24.470Z,85.54
2022-09-10T09:50:33.532Z,85.96
2022-09-10T09:52:38.505Z,86.70
2022-09-10T09:55:13.183Z,86.64
2022-09-10T09:57:17.055Z,88.45
2022-09-10T09:59:28.106Z,88.93
2022-09-10T10:01:33.752Z,88.22
2022-09-10T10:03:48.472Z,89.15
2022-09-10T10:06:01.202Z,89.75
2022-09-10T10:08:04.508Z,89.13
2022-09-10T10:10:24.786Z,88.89
2022-09-10T10:12:31.585Z,88.76
2022-09-10T10:14:41.466Z,89.06
2022-09-10T10:16:47.205Z,88.96
2022-09-10T10:18:51.755Z,88.75
2022-09-10T10:21:14.437Z,89.31
2022-09-10T10:23:31.245Z,88.87
2022-09-10T10:25:41.877Z,89.13
2022-09-10T10:27:47.599Z,89.16
2022-09-10T10:29:56.451Z,89.40
2022-09-10T10:32:05.080Z,88.80
2022-09-10T10:34:33.598Z,88.93
2022-09-10T10:36:47.823Z,88.38
2022-09-10T10:38:57.702Z,88.34
2022-09-10T10:41:34.343Z,88.64
2022-09-10T10:43:51.745Z,88.38
2022-09-10T10:46:02.472Z,87.98
2022-09-10T10:48:12.835Z,88.35
2022-09-10T10:50:30.420Z,88.01
2022-09-10T10:52:40.817Z,88.26
2022-09-10T10:54:59.829Z,87.33
2022-09-10T10:57:20.055Z,87.33
2022-09-10T10:59:40.295Z,86.89
2022-09-10T11:01:48.522Z,86.38
2022-09-10T11:04:00.984Z,86.40
2022-09-10T11:06:09.496Z,86.13
2022-09-10T11:08:16.945Z,85.32
2022-09-10T11:10:26.104Z,85.15
2022-09-10T11:12:34.805Z,85.64
2022-09-10T11:14:44.149Z,85.93
2022-09-10T11:16:57.990Z,86.31
2022-09-10T11:19:09.184Z,85.55
2022-09-10T11:21:19.733Z,86.41
2022-09-10T11:23:29.592Z,87.12
2022-09-10T11:25:37.809Z,87.59
2022-09-10T11:27:49.124Z,88.08
2022-09-10T11:29:59.322Z,88.00
2022-09-10T11:32:08.113Z,88.88
2022-09-10T11:34:18.111Z,88.29
2022-09-10T11:36:28.079Z,88.69
2022-09-10T11:38:43.199Z,88.66
2022-09-10T11:40:52.223Z,89.14
2022-09-10T11:43:03.485Z,89.23
2022-09-10T11:45:20.026Z,89.05
2022-09-10T11:47:28.292Z,89.11
2022-09-10T11:49:41.334Z,88.83
2022-09-10T11:51:46.404Z,88.84
2022-09-10T11:53:50.157Z,88.88
2022-09-10T11:56:18.378Z,89.33
2022-09-10T11:58:31.123Z,88.21
2022-09-10T12:00:43.357Z,88.32
2022-09-10T12:03:22.233Z,87.85
2022-09-10T12:05:28.789Z,87.50
2022-09-10T12:07:49.038Z,87.94
2022-09-10T12:10:04.954Z,88.20
2022-09-10T12:12:16.020Z,87.44
2022-09-10T12:14:21.614Z,87.53
2022-09-10T12:16:34.646Z,87.76
2022-09-10T12:18:44.945Z,87.39
2022-09-10T12:20:53.091Z,88.10
2022-09-10T12:22:57.619Z,87.79
2022-09-10T12:25:04.253Z,87.29
2022-09-10T12:27:10.041Z,88.25
2022-09-10T12:29:40.703Z,88.03
2022-09-10T12:32:16.947Z,88.96
2022-09-10T12:34:20.750Z,88.87
2022-09-10T12:37:17.059Z,89.15
2022-09-10T12:39:23.255Z,89.33
2022-09-10T12:41:59.177Z,89.56
2022-09-10T12:44:04.541Z,89.03
2022-09-10T12:46:20.379Z,90.35
2022-09-10T12:48:26.962Z,90.03
2022-09-10T12:50:33.647Z,90.53
2022-09-10T12:52:47.138Z,90.88
2022-09-10T12:54:56.855Z,90.84
2022-09-10T12:57:22.535Z,90.77
2022-09-10T12:59:48.170Z,91.11
2022-09-10T13:01:53.393Z,90.29
2022-09-10T13:04:00.405Z,90.90
2022-09-10T13:06:07.047Z,90.62
2022-09-10T13:08:18.436Z,90.57
2022-09-10T13:10:25.119Z,91.49
2022-09-10T13:12:29.356Z,91.48
2022-09-10T13:14:36.746Z,92.39
2022-09-10T13:16:42.635Z,92.13
2022-09-10T13:18:48.718Z,91.47
2022-09-10T13:20:52.336Z,90.72
2022-09-10T13:23:00.319Z,90.68
2022-09-10T13:25:18.819Z,88.99
2022-09-10T13:27:35.522Z,89.48
2022-09-10T13:29:41.829Z,89.68
2022-09-10T13:31:47.646Z,89.55
2022-09-10T13:34:23.443Z,89.93
2022-09-10T13:36:38.437Z,90.39
2022-09-10T13:39:03.171Z,90.51
2022-09-10T13:41:33.459Z,89.90
2022-09-10T13:43:50.723Z,90.50
2022-09-10T13:46:00.563Z,90.42
2022-09-10T13:48:12.293Z,90.40
2022-09-10T13:50:22.024Z,90.61
2022-09-10T13:52:30.200Z,91.28
2022-09-10T13:54:35.493Z,91.12
2022-09-10T13:56:43.658Z,91.34
2022-09-10T13:58:53.472Z,90.76
2022-09-10T14:00:58.550Z,90.71
2022-09-10T14:03:02.577Z,90.29
2022-09-10T14:07:35.751Z,90.89
2022-09-10T14:09:43.393Z,90.28
2022-09-10T14:11:47.646Z,89.84
2022-09-10T14:13:55.965Z,90.04
2022-09-10T14:16:02.311Z,90.08
2022-09-10T14:18:06.205Z,89.52
2022-09-10T14:20:19.082Z,89.18
2022-09-10T14:22:25.739Z,89.20
2022-09-10T14:24:34.653Z,89.57
2022-09-10T14:26:37.997Z,88.89
2022-09-10T14:28:53.286Z,89.35
2022-09-10T14:31:22.848Z,89.80
2022-09-10T14:33:32.487Z,89.26
2022-09-10T14:35:38.056Z,89.42
2022-09-10T14:37:42.643Z,88.75
2022-09-10T14:39:47.431Z,88.62
2022-09-10T14:42:08.474Z,89.06
2022-09-10T14:44:39.771Z,88.77
2022-09-10T14:46:52.353Z,88.58
2022-09-10T14:49:11.220Z,88.47
2022-09-10T14:51:17.853Z,88.35
2022-09-10T14:53:21.415Z,88.01
2022-09-10T14:55:28.426Z,88.20
2022-09-10T14:57:31.749Z,87.59
2022-09-10T14:59:38.568Z,88.09
2022-09-10T15:01:42.868Z,87.77
2022-09-10T15:03:46.253Z,87.81
2022-09-10T15:05:49.696Z,88.24
2022-09-10T15:07:52.971Z,88.72
2022-09-10T15:09:56.409Z,88.55
2022-09-10T15:12:05.051Z,88.92
2022-09-10T15:14:12.239Z,88.93
2022-09-10T15:16:16.018Z,88.61
2022-09-10T15:18:19.321Z,88.33
2022-09-10T15:20:27.159Z,88.30
2022-09-10T15:22:31.851Z,88.29
2022-09-10T15:24:52.509Z,88.15
2022-09-10T15:26:59.008Z,88.19
2022-09-10T15:29:03.678Z,87.73
2022-09-10T15:31:07.664Z,87.64
2022-09-10T15:33:15.001Z,87.34
2022-09-10T15:35:18.738Z,87.12
2022-09-10T15:37:22.358Z,87.49
2022-09-10T15:39:25.779Z,87.72
2022-09-10T15:41:29.612Z,87.50
2022-09-10T15:43:37.643Z,86.83
2022-09-10T15:45:42.358Z,86.53
2022-09-10T15:47:45.918Z,87.19
2022-09-10T15:49:49.264Z,87.25
2022-09-10T15:51:52.553Z,87.17
2022-09-10T15:53:56.288Z,87.10
2022-09-10T15:56:01.306Z,87.12
2022-09-10T15:58:05.162Z,87.37
2022-09-10T16:00:10.057Z,87.15
2022-09-10T16:02:14.731Z,86.68
2022-09-10T16:04:18.095Z,86.94
2022-09-10T16:06:21.984Z,86.71
2022-09-10T16:08:25.306Z,86.72
2022-09-10T16:10:28.630Z,87.19
2022-09-10T16:12:32.091Z,87.43
2022-09-10T16:14:35.774Z,87.46
2022-09-10T16:16:40.909Z,87.63
2022-09-10T16:18:45.675Z,87.60
2022-09-10T16:20:48.959Z,87.44
2022-09-10T16:22:54.355Z,87.62
2022-09-10T16:24:57.714Z,87.78
2022-09-10T16:27:01.360Z,87.90
2022-09-10T16:29:06.924Z,88.46
2022-09-10T16:31:15.280Z,89.13
2022-09-10T16:33:18.922Z,89.33
2022-09-10T16:35:24.022Z,89.01
2022-09-10T16:37:27.395Z,89.13
2022-09-10T16:39:30.870Z,88.95
2022-09-10T16:41:34.522Z,89.12
2022-09-10T16:43:38.448Z,89.27
2022-09-10T16:45:51.117Z,89.39
2022-09-10T16:47:55.870Z,89.73
2022-09-10T16:49:59.227Z,90.04
2022-09-10T16:52:05.137Z,89.84
2022-09-10T16:54:09.039Z,90.20
2022-09-10T16:56:14.775Z,90.28
2022-09-10T16:58:18.295Z,90.58
2022-09-10T17:00:22.253Z,90.77
2022-09-10T17:02:26.028Z,90.85
2022-09-10T17:04:29.578Z,91.31
2022-09-10T17:06:33.183Z,91.40
2022-09-10T17:08:38.954Z,91.29
2022-09-10T17:10:43.267Z,91.56
2022-09-10T17:12:46.751Z,92.07
2022-09-10T17:14:50.259Z,92.06
2022-09-10T17:16:53.575Z,91.85
2022-09-10T17:18:58.572Z,91.61
2022-09-10T17:21:01.951Z,92.03
2022-09-10T17:23:05.732Z,91.49
2022-09-10T17:25:11.708Z,91.78
2022-09-10T17:27:15.045Z,92.20
2022-09-10T17:29:20.030Z,92.04
2022-09-10T17:31:23.846Z,92.37
2022-09-10T17:33:27.516Z,92.58
2022-09-10T17:35:32.253Z,92.55
2022-09-10T17:37:37.017Z,92.52
2022-09-10T17:39:40.721Z,92.68
2022-09-10T17:41:45.688Z,92.55
2022-09-10T17:43:49.661Z,92.75
2022-09-10T17:45:53.322Z,92.74
2022-09-10T17:47:57.336Z,93.03
2022-09-10T17:50:00.726Z,93.28
2022-09-10T17:52:04.911Z,93.62
2022-09-10T17:54:08.536Z,93.72
2022-09-10T17:56:13.790Z,93.61
2022-09-10T17:58:18.791Z,94.03
2022-09-10T18:00:22.218Z,93.95
2022-09-10T18:02:25.616Z,94.12
2022-09-10T18:04:28.953Z,93.91
2022-09-10T18:06:33.045Z,93.86
2022-09-10T18:08:37.690Z,94.01
2022-09-10T18:10:41.139Z,93.83
2022-09-10T18:12:44.917Z,94.31
2022-09-10T18:14:49.735Z,94.11
2022-09-10T18:16:54.029Z,94.12
2022-09-10T18:19:00.315Z,93.72
2022-09-10T18:21:15.089Z,94.33
2022-09-10T18:23:19.798Z,94.13
2022-09-10T18:25:23.265Z,94.14
2022-09-10T18:27:26.610Z,93.99
2022-09-10T18:29:30.649Z,93.97
2022-09-10T18:31:37.682Z,93.85
2022-09-10T18:33:42.130Z,93.76
2022-09-10T18:35:47.404Z,94.02
2022-09-10T18:37:51.879Z,94.04
2022-09-10T18:39:56.090Z,93.93
2022-09-10T18:42:00.839Z,93.55
2022-09-10T18:44:07.530Z,93.94
2022-09-10T18:46:11.516Z,93.98
2022-09-10T18:48:16.322Z,93.78
2022-09-10T18:50:19.800Z,93.93
2022-09-10T18:52:23.374Z,94.04
2022-09-10T18:54:29.568Z,94.36
2022-09-10T18:56:33.238Z,94.34
2022-09-10T18:58:37.041Z,94.35
2022-09-10T19:00:40.672Z,94.41
2022-09-10T19:02:45.851Z,94.42
2022-09-10T19:05:10.347Z,94.50
2022-09-10T19:07:13.977Z,94.62
2022-09-10T19:09:19.203Z,94.41
2022-09-10T19:11:24.583Z,94.75
2022-09-10T19:13:28.857Z,94.72
2022-09-10T19:15:32.193Z,94.72
2022-09-10T19:17:35.601Z,94.67
2022-09-10T19:19:42.415Z,94.72
2022-09-10T19:21:48.292Z,94.83
2022-09-10T19:23:56.235Z,94.47
2022-09-10T19:26:02.952Z,94.66
2022-09-10T19:28:06.321Z,94.71
2022-09-10T19:30:10.961Z,94.13
2022-09-10T19:32:15.146Z,94.32
2022-09-10T19:34:20.392Z,94.62
2022-09-10T19:36:27.366Z,94.61
2022-09-10T19:38:37.773Z,94.26
2022-09-10T19:40:41.383Z,94.17
2022-09-10T19:42:44.799Z,94.19
2022-09-10T19:44:48.117Z,94.26
2022-09-10T19:46:51.452Z,94.24
2022-09-10T19:48:58.264Z,94.17
2022-09-10T19:51:03.330Z,94.09
2022-09-10T19:53:06.674Z,94.05
2022-09-10T19:55:12.673Z,93.99
2022-09-10T19:57:16.039Z,94.16
2022-09-10T19:59:19.367Z,94.47
2022-09-10T20:01:25.085Z,94.38
2022-09-10T20:03:28.382Z,94.41
2022-09-10T20:05:34.079Z,94.27
2022-09-10T20:07:37.567Z,94.25
2022-09-10T20:09:41.156Z,94.25
2022-09-10T20:11:45.989Z,94.37
2022-09-10T20:13:49.930Z,94.55
2022-09-10T20:15:53.817Z,94.23
2022-09-10T20:17:57.242Z,94.47
2022-09-10T20:20:01.663Z,94.30
2022-09-10T20:22:05.045Z,94.50
2022-09-10T20:24:09.336Z,94.36
2022-09-10T20:26:15.876Z,94.04
2022-09-10T20:28:20.924Z,94.47
2022-09-10T20:30:24.319Z,94.63
2022-09-10T20:32:27.911Z,94.21
2022-09-10T20:34:32.332Z,94.37
2022-09-10T20:36:37.886Z,94.53
2022-09-10T20:38:41.663Z,94.38
2022-09-10T20:40:45.103Z,94.54
2022-09-10T20:42:48.470Z,94.45
2022-09-10T20:44:54.167Z,94.66
2022-09-10T20:46:57.463Z,94.47
2022-09-10T20:49:03.007Z,94.48
2022-09-10T20:51:07.355Z,94.21
2022-09-10T20:53:10.669Z,94.24
2022-09-10T20:55:14.071Z,94.16
2022-09-10T20:57:17.424Z,94.21
2022-09-10T20:59:24.335Z,94.18
2022-09-10T21:01:32.017Z,94.44
2022-09-10T21:03:35.524Z,94.37
2022-09-10T21:05:39.277Z,94.23
2022-09-10T21:07:42.766Z,94.31
2022-09-10T21:09:46.519Z,94.28
2022-09-10T21:11:50.675Z,94.34
2022-09-10T21:13:55.870Z,94.27
2022-09-10T21:16:06.261Z,94.48
2022-09-10T21:18:10.924Z,94.27
2022-09-10T21:20:14.459Z,94.29
2022-09-10T21:22:17.786Z,94.31
2022-09-10T21:24:22.899Z,94.10
2022-09-10T21:26:28.296Z,94.11
2022-09-10T21:28:31.694Z,94.12
2022-09-10T21:30:34.985Z,94.12
2022-09-10T21:32:38.461Z,94.04
2022-09-10T21:34:43.156Z,94.62
2022-09-10T21:36:47.327Z,94.65
2022-09-10T21:38:51.646Z,94.55
2022-09-10T21:40:59.190Z,94.24
2022-09-10T21:43:04.118Z,94.23
2022-09-10T21:45:08.351Z,94.10
2022-09-10T21:47:11.895Z,94.35
2022-09-10T21:49:15.987Z,94.71
2022-09-10T21:51:22.109Z,94.62
2022-09-10T21:53:27.000Z,94.47
2022-09-10T21:55:31.667Z,94.90
2022-09-10T21:57:34.975Z,94.73
2022-09-10T21:59:38.422Z,94.55
2022-09-10T22:01:43.835Z,94.69
2022-09-10T22:03:48.379Z,94.69
2022-09-10T22:05:51.692Z,94.48
2022-09-10T22:07:57.367Z,94.77
2022-09-10T22:10:00.732Z,94.46
2022-09-10T22:12:04.434Z,94.97
2022-09-10T22:14:12.688Z,94.77
2022-09-10T22:16:16.015Z,94.74
2022-09-10T22:18:20.434Z,94.70
2022-09-10T22:20:23.834Z,94.42
2022-09-10T22:22:28.001Z,94.39
2022-09-10T22:24:32.789Z,94.40
2022-09-10T22:26:38.228Z,94.29
2022-09-10T22:28:42.702Z,94.01
2022-09-10T22:30:46.049Z,94.48
2022-09-10T22:32:49.370Z,94.01
2022-09-10T22:34:52.672Z,93.95
2022-09-10T22:36:55.960Z,94.02
2022-09-10T22:39:01.483Z,93.91
2022-09-10T22:41:07.806Z,93.86
2022-09-10T22:43:11.084Z,93.78
2022-09-10T22:45:14.615Z,93.51
2022-09-10T22:47:18.600Z,93.79
2022-09-10T22:49:21.921Z,93.64
2022-09-10T22:51:27.452Z,93.74
2022-09-10T22:53:30.752Z,93.56
2022-09-10T22:55:34.691Z,93.83
2022-09-10T22:57:40.447Z,93.86
2022-09-10T22:59:43.733Z,93.86
2022-09-10T23:01:48.247Z,93.83
2022-09-10T23:03:52.915Z,93.62
2022-09-10T23:06:03.897Z,93.65
2022-09-10T23:08:07.695Z,93.60
2022-09-10T23:10:11.055Z,93.83
2022-09-10T23:12:14.602Z,93.78
2022-09-10T23:14:21.937Z,93.74
2022-09-10T23:16:28.788Z,93.93
2022-09-10T23:18:33.017Z,93.83
2022-09-10T23:20:37.455Z,93.89
2022-09-10T23:22:40.713Z,93.39
2022-09-10T23:24:44.002Z,93.15
2022-09-10T23:26:47.486Z,92.78
2022-09-10T23:28:51.308Z,93.24
2022-09-10T23:30:56.010Z,93.44
2022-09-10T23:32:59.298Z,93.26
2022-09-10T23:35:02.789Z,93.23
2022-09-10T23:37:06.063Z,93.62
2022-09-10T23:39:12.473Z,93.71
2022-09-10T23:41:16.299Z,93.18
2022-09-10T23:43:19.607Z,93.11
2022-09-10T23:45:23.045Z,93.29
2022-09-10T23:47:27.971Z,93.45
2022-09-10T23:49:31.363Z,93.52
2022-09-10T23:51:35.202Z,93.20
2022-09-10T23:53:39.211Z,93.21
2022-09-10T23:55:42.551Z,93.13
2022-09-10T23:57:47.209Z,93.38
2022-09-10T23:59:50.524Z,93.22
